X  Sluiten METAR luchtvaart weer gegevens      EHLE Lelystad Airport
Temperatuur
6°C Temperatuur
3°C Dauwpunt
81% Vochtigheid



Wind
18 MPH
29 KM/U
8 M/S
16 KTS



330°
NNW
Huidig weer

Wat bewolking Wat bewolking
Luchtdruk 1007.79 (hPa) - 29.76 (inHg)
Zicht 6 (mijl) - 9.7 (km)
Vliegveld
Vliegveld code EHLE

Locatie : Lelystad Airport
Afstand: 25 (mi)

Metar:
EHLE 240625Z AUTO 33016KT 280V010 9999 FEW014/// BKN017/// BKN022/// 06/03 Q1008 TEMPO 34015G25KT 7000 SHRA FEW020CB

Tijd: 24-04-2024 08:25 CEST